Flight Track Log - Related Links

Times and Time Zones

All times are in EST time to prevent confusion due to time zone crossing. See the CES2660 flight status page for this flight to view local times or setup timezone preferences in your user account.

Time Position Orientation Groundspeed Altitude Reporting Facility
EST Latitude Longitude Course Direction KTS MPH feet Rate Location/Type
Sun 12:06:57 AM 31.3840 121.7036 343° North 282 325 10,400  Level FlightAware ADS-B (ZSSS / SHA)
Sun 12:07:27 AM 31.4263 121.6880 342° North 321 369 11,100 2,000 Climbing FlightAware ADS-B (ZSSS / SHA)
Sun 12:08:00 AM 31.4748 121.6700 342° North 339 390 12,500 2,762 Climbing FlightAware ADS-B (ZSSS / SHA)
Sun 12:08:30 AM 31.5185 121.6522 341° North 345 397 14,000 3,100 Climbing FlightAware ADS-B (ZSSS / SHA)
Sun 12:09:00 AM 31.5559 121.6188 323° Northwest 342 394 15,600 2,273 Climbing FlightAware ADS-B (ZSSS / SHA)
Sun 12:11:48 AM 31.7496 121.3910 265° West 359 413 21,500 2,179 Climbing FlightAware ADS-B (ZSSS / SHA)
Sun 12:12:21 AM 31.7854 121.3479 314° West 365 420 22,900 2,545 Climbing FlightAware ADS-B (ZSSS / SHA)
Sun 12:14:00 AM 31.7590 121.1119 263° West  Level Estimated
Sun 12:15:00 AM 31.7427 120.9690 262° West  Level Estimated
Sun 12:16:00 AM 31.7263 120.8261 262° West  Level Estimated
Sun 12:17:00 AM 31.7097 120.6832 262° West  Level Estimated
Sun 12:18:00 AM 31.6930 120.5404 262° West  Level Estimated
Sun 12:19:00 AM 31.6761 120.3977 262° West  Level Estimated
Sun 12:20:00 AM 31.6591 120.2550 262° West  Level Estimated
Sun 12:21:00 AM 31.6418 120.1124 262° West  Level Estimated
Sun 12:22:00 AM 31.6245 119.9698 262° West  Level Estimated
Sun 12:23:00 AM 31.6070 119.8272 262° West  Level Estimated
Sun 12:24:00 AM 31.5893 119.6848 262° West  Level Estimated
Sun 12:25:00 AM 31.5714 119.5423 262° West  Level Estimated
Sun 12:26:00 AM 31.5534 119.4000 262° West  Level Estimated
Sun 12:27:00 AM 31.5353 119.2577 262° West  Level Estimated
Sun 12:28:00 AM 31.5169 119.1154 261° West  Level Estimated
Sun 12:29:00 AM 31.4985 118.9732 261° West  Level Estimated
Sun 12:30:00 AM 31.4798 118.8310 261° West  Level Estimated
Sun 12:31:00 AM 31.4611 118.6889 261° West  Level Estimated
Sun 12:32:00 AM 31.4421 118.5469 261° West  Level Estimated
Sun 12:33:00 AM 31.4230 118.4049 261° West  Level Estimated
Sun 12:34:00 AM 31.4037 118.2630 261° West  Level Estimated
Sun 12:35:00 AM 31.3843 118.1212 261° West  Level Estimated
Sun 12:36:00 AM 31.3648 117.9794 261° West  Level Estimated
Sun 12:37:00 AM 31.3450 117.8376 261° West  Level Estimated
Sun 12:38:00 AM 31.3251 117.6959 261° West  Level Estimated
Sun 12:39:00 AM 31.3051 117.5543 261° West  Level Estimated
Sun 12:40:00 AM 31.2849 117.4128 261° West  Level Estimated
Sun 12:41:00 AM 31.2646 117.2713 260° West  Level Estimated
Sun 12:42:00 AM 31.2441 117.1298 260° West  Level Estimated
Sun 12:43:00 AM 31.2234 116.9884 260° West  Level Estimated
Sun 12:44:00 AM 31.2106 116.9013 260° West  Level Estimated
Sun 12:45:00 AM 31.1977 116.8141 260° West  Level Estimated
Sun 12:46:00 AM 31.1848 116.7270 260° West  Level Estimated
Sun 12:47:00 AM 31.1718 116.6399 260° West  Level Estimated
Sun 12:48:00 AM 31.1587 116.5528 260° West  Level Estimated
Sun 12:49:00 AM 31.1456 116.4657 260° West  Level Estimated
Sun 12:50:00 AM 31.1324 116.3787 260° West  Level Estimated
Sun 12:51:00 AM 31.1192 116.2917 260° West  Level Estimated
Sun 12:52:00 AM 31.1059 116.2047 260° West  Level Estimated
Sun 12:53:00 AM 31.0926 116.1177 260° West  Level Estimated
Sun 12:54:00 AM 31.0791 116.0308 260° West  Level Estimated
Sun 12:55:00 AM 31.0657 115.9439 260° West  Level Estimated
Sun 12:56:00 AM 31.0522 115.8570 260° West  Level Estimated
Sun 12:57:00 AM 31.0386 115.7701 260° West  Level Estimated
Sun 12:58:00 AM 31.0250 115.6833 260° West  Level Estimated
Sun 12:59:00 AM 31.0112 115.5965 260° West  Level Estimated
Sun 01:00:00 AM 30.9975 115.5097 260° West  Level Estimated
Sun 01:01:00 AM 30.9837 115.4229 260° West  Level Estimated
Sun 01:02:00 AM 30.9698 115.3362 259° West  Level Estimated
Sun 01:03:00 AM 30.9559 115.2495 259° West  Level Estimated
Sun 01:04:00 AM 30.9419 115.1628 259° West  Level Estimated
Sun 01:05:00 AM 30.9279 115.0761 259° West  Level Estimated
Sun 01:06:00 AM 30.9137 114.9895 259° West  Level Estimated
Sun 01:07:00 AM 30.8996 114.9029 259° West  Level Estimated
Sun 01:08:00 AM 30.8854 114.8163 259° West  Level Estimated
Sun 01:09:00 AM 30.8711 114.7297 259° West  Level Estimated
Sun 01:10:00 AM 30.8568 114.6432 259° West  Level Estimated
Sun 01:11:00 AM 30.8424 114.5567 259° West  Level Estimated
Sun 01:12:00 AM 30.8279 114.4702 259° West  Level Estimated
Sun 01:13:00 AM 30.8134 114.3837 259° West  Level Estimated
Sun 01:14:00 AM 30.7989 114.2973 259° West  Level Estimated
Sun 01:15:00 AM 30.7842 114.2109 259° West  Level Estimated
Sun 01:16:00 AM 30.7838 114.2081 259° West  Level Estimated
Sun 01:17:00 AM 30.7838 114.2081 180° South  Level Estimated
Sun 01:18:00 AM 30.7838 114.2081 180° South  Level Estimated
Sun 01:19:00 AM 30.7838 114.2081 180° South  Level Estimated
Sun 01:20:00 AM 30.7838 114.2081 180° South  Level Estimated
Sun 01:21:00 AM 30.7838 114.2081 180° South  Level Estimated
Sun 01:22:00 AM 30.7838 114.2081 180° South  Level Estimated
Sun 01:23:00 AM 30.7838 114.2081 180° South  Level Estimated
Sun 01:24:00 AM 30.7838 114.2081 180° South  Level Estimated
Sun 01:25:00 AM 30.7838 114.2081 180° South  Level Estimated
Sun 01:26:00 AM 30.7838 114.2081 180° South  Level Estimated
Sun 01:27:00 AM 30.7838 114.2081 180° South  Level Estimated
Sun 01:28:00 AM 30.7838 114.2081 180° South  Level Estimated
Sun 01:29:00 AM 30.7838 114.2081 180° South  Level Estimated
Sun 01:30:00 AM 30.7838 114.2081 180° South  Level Estimated
Sun 01:31:00 AM 30.7838 114.2081 180° South  Level Estimated
Sun 01:32:00 AM 30.7838 114.2081 180° South  Level Estimated
Sun 01:33:00 AM 30.7838 114.2081 180° South  Level Estimated
Sun 01:34:00 AM 30.7838 114.2081 180° South  Level Estimated
Sun 01:35:00 AM 30.7838 114.2081 180° South  Level Estimated
Sun 01:36:00 AM 30.7838 114.2081 180° South  Level Estimated
Sun 01:37:00 AM 30.7838 114.2081 180° South  Level Estimated
Sun 01:38:00 AM 30.7838 114.2081 180° South  Level Estimated
Sun 01:39:00 AM 30.7838 114.2081 180° South  Level Estimated
Sun 01:40:00 AM 30.7838 114.2081 180° South  Level Estimated

Login

Don't have an account? Register now (free) for customized features, flight alerts, and more!